sensor_id;sensor_type;location;lat;lon;timestamp;P1;durP1;ratioP1;P2;durP2;ratioP2
36787;SDS011;22738;45.560;9.434;2023-07-30T00:05:56;5.65;;;1.38;;
36787;SDS011;22738;45.560;9.434;2023-07-30T00:12:37;3.33;;;1.67;;
36787;SDS011;22738;45.560;9.434;2023-07-30T00:19:21;3.90;;;1.83;;
36787;SDS011;22738;45.560;9.434;2023-07-30T00:26:03;2.85;;;1.48;;
36787;SDS011;22738;45.560;9.434;2023-07-30T00:32:44;3.17;;;1.83;;
36787;SDS011;22738;45.560;9.434;2023-07-30T00:39:26;2.97;;;1.85;;
36787;SDS011;22738;45.560;9.434;2023-07-30T00:46:07;2.97;;;1.55;;
36787;SDS011;22738;45.560;9.434;2023-07-30T00:52:48;3.80;;;1.63;;
36787;SDS011;22738;45.560;9.434;2023-07-30T00:59:30;4.03;;;2.00;;
36787;SDS011;22738;45.560;9.434;2023-07-30T01:06:11;4.40;;;1.98;;
36787;SDS011;22738;45.560;9.434;2023-07-30T01:12:52;4.22;;;2.65;;
36787;SDS011;22738;45.560;9.434;2023-07-30T01:19:35;5.93;;;2.47;;
36787;SDS011;22738;45.560;9.434;2023-07-30T01:26:22;4.65;;;2.65;;
36787;SDS011;22738;45.560;9.434;2023-07-30T01:33:08;6.07;;;3.53;;
36787;SDS011;22738;45.560;9.434;2023-07-30T01:39:51;5.53;;;3.40;;
36787;SDS011;22738;45.560;9.434;2023-07-30T01:46:33;5.40;;;3.17;;
36787;SDS011;22738;45.560;9.434;2023-07-30T01:53:14;9.65;;;3.53;;
36787;SDS011;22738;45.560;9.434;2023-07-30T01:59:57;4.85;;;3.97;;
36787;SDS011;22738;45.560;9.434;2023-07-30T02:06:38;5.93;;;4.32;;
36787;SDS011;22738;45.560;9.434;2023-07-30T02:13:23;7.63;;;5.22;;
36787;SDS011;22738;45.560;9.434;2023-07-30T02:20:05;10.55;;;5.30;;
36787;SDS011;22738;45.560;9.434;2023-07-30T02:26:47;7.20;;;4.68;;
36787;SDS011;22738;45.560;9.434;2023-07-30T02:33:29;8.30;;;4.97;;
36787;SDS011;22738;45.560;9.434;2023-07-30T02:40:10;9.10;;;5.05;;
36787;SDS011;22738;45.560;9.434;2023-07-30T02:46:52;8.07;;;6.00;;
36787;SDS011;22738;45.560;9.434;2023-07-30T02:53:33;5.32;;;4.43;;
36787;SDS011;22738;45.560;9.434;2023-07-30T03:00:15;8.63;;;6.00;;
36787;SDS011;22738;45.560;9.434;2023-07-30T03:06:56;10.55;;;6.50;;
36787;SDS011;22738;45.560;9.434;2023-07-30T03:13:38;9.25;;;5.80;;
36787;SDS011;22738;45.560;9.434;2023-07-30T03:20:19;10.43;;;6.57;;
36787;SDS011;22738;45.560;9.434;2023-07-30T03:27:00;9.18;;;5.82;;
36787;SDS011;22738;45.560;9.434;2023-07-30T03:33:42;8.75;;;5.80;;
36787;SDS011;22738;45.560;9.434;2023-07-30T03:40:24;8.32;;;6.00;;
36787;SDS011;22738;45.560;9.434;2023-07-30T03:47:07;9.43;;;6.18;;
36787;SDS011;22738;45.560;9.434;2023-07-30T03:53:50;8.18;;;6.07;;
36787;SDS011;22738;45.560;9.434;2023-07-30T04:00:31;6.60;;;5.68;;
36787;SDS011;22738;45.560;9.434;2023-07-30T04:07:13;9.57;;;5.60;;
36787;SDS011;22738;45.560;9.434;2023-07-30T04:13:54;9.43;;;5.40;;
36787;SDS011;22738;45.560;9.434;2023-07-30T04:20:35;9.98;;;5.47;;
36787;SDS011;22738;45.560;9.434;2023-07-30T04:27:19;15.35;;;5.93;;
36787;SDS011;22738;45.560;9.434;2023-07-30T04:34:01;8.82;;;6.55;;
36787;SDS011;22738;45.560;9.434;2023-07-30T04:40:42;10.90;;;6.47;;
36787;SDS011;22738;45.560;9.434;2023-07-30T04:47:23;12.95;;;8.05;;
36787;SDS011;22738;45.560;9.434;2023-07-30T04:54:04;13.00;;;7.05;;
36787;SDS011;22738;45.560;9.434;2023-07-30T05:00:46;9.13;;;5.82;;
36787;SDS011;22738;45.560;9.434;2023-07-30T05:07:27;8.35;;;6.57;;
36787;SDS011;22738;45.560;9.434;2023-07-30T05:14:08;12.80;;;6.45;;
36787;SDS011;22738;45.560;9.434;2023-07-30T05:20:51;11.05;;;5.43;;
36787;SDS011;22738;45.560;9.434;2023-07-30T05:27:32;7.28;;;5.53;;
36787;SDS011;22738;45.560;9.434;2023-07-30T05:34:13;6.55;;;4.38;;
36787;SDS011;22738;45.560;9.434;2023-07-30T05:40:54;7.75;;;5.00;;
36787;SDS011;22738;45.560;9.434;2023-07-30T05:47:35;11.13;;;4.97;;
36787;SDS011;22738;45.560;9.434;2023-07-30T05:54:16;7.05;;;3.67;;
36787;SDS011;22738;45.560;9.434;2023-07-30T06:01:01;7.68;;;2.88;;
36787;SDS011;22738;45.560;9.434;2023-07-30T06:07:42;4.85;;;2.58;;
36787;SDS011;22738;45.560;9.434;2023-07-30T06:14:23;5.10;;;3.87;;
36787;SDS011;22738;45.560;9.434;2023-07-30T06:21:05;6.03;;;3.58;;
36787;SDS011;22738;45.560;9.434;2023-07-30T06:27:46;7.15;;;2.88;;
36787;SDS011;22738;45.560;9.434;2023-07-30T06:34:27;3.92;;;2.70;;
36787;SDS011;22738;45.560;9.434;2023-07-30T06:41:09;6.40;;;3.20;;
36787;SDS011;22738;45.560;9.434;2023-07-30T06:47:50;5.18;;;3.30;;
36787;SDS011;22738;45.560;9.434;2023-07-30T06:54:32;8.80;;;2.88;;
36787;SDS011;22738;45.560;9.434;2023-07-30T07:01:15;4.95;;;2.72;;
36787;SDS011;22738;45.560;9.434;2023-07-30T07:07:56;3.00;;;2.20;;
36787;SDS011;22738;45.560;9.434;2023-07-30T07:14:38;2.30;;;1.83;;
36787;SDS011;22738;45.560;9.434;2023-07-30T07:21:20;2.15;;;1.60;;
36787;SDS011;22738;45.560;9.434;2023-07-30T07:28:01;2.53;;;1.90;;
36787;SDS011;22738;45.560;9.434;2023-07-30T07:34:48;3.00;;;1.90;;
36787;SDS011;22738;45.560;9.434;2023-07-30T07:41:30;3.78;;;2.30;;
36787;SDS011;22738;45.560;9.434;2023-07-30T07:48:11;3.45;;;2.25;;
36787;SDS011;22738;45.560;9.434;2023-07-30T07:54:52;4.35;;;2.40;;
36787;SDS011;22738;45.560;9.434;2023-07-30T08:01:33;3.77;;;2.40;;
36787;SDS011;22738;45.560;9.434;2023-07-30T08:08:14;4.33;;;2.80;;
36787;SDS011;22738;45.560;9.434;2023-07-30T08:14:57;3.47;;;2.40;;
36787;SDS011;22738;45.560;9.434;2023-07-30T08:21:40;5.60;;;2.88;;
36787;SDS011;22738;45.560;9.434;2023-07-30T08:28:21;4.15;;;3.17;;
36787;SDS011;22738;45.560;9.434;2023-07-30T08:35:03;5.93;;;3.10;;
36787;SDS011;22738;45.560;9.434;2023-07-30T08:41:45;3.43;;;2.90;;
36787;SDS011;22738;45.560;9.434;2023-07-30T08:48:29;5.27;;;2.90;;
36787;SDS011;22738;45.560;9.434;2023-07-30T08:55:32;3.53;;;2.63;;
36787;SDS011;22738;45.560;9.434;2023-07-30T09:02:18;4.35;;;2.63;;
36787;SDS011;22738;45.560;9.434;2023-07-30T09:09:05;6.03;;;3.20;;
36787;SDS011;22738;45.560;9.434;2023-07-30T09:15:52;4.35;;;3.30;;
36787;SDS011;22738;45.560;9.434;2023-07-30T09:22:33;5.13;;;3.50;;
36787;SDS011;22738;45.560;9.434;2023-07-30T09:29:20;6.57;;;4.03;;
36787;SDS011;22738;45.560;9.434;2023-07-30T09:42:45;5.18;;;3.40;;
36787;SDS011;22738;45.560;9.434;2023-07-30T09:49:30;6.50;;;3.90;;
36787;SDS011;22738;45.560;9.434;2023-07-30T09:56:12;9.90;;;4.43;;
36787;SDS011;22738;45.560;9.434;2023-07-30T10:02:54;6.57;;;3.88;;
36787;SDS011;22738;45.560;9.434;2023-07-30T10:09:39;5.80;;;4.00;;
36787;SDS011;22738;45.560;9.434;2023-07-30T10:16:26;7.93;;;3.65;;
36787;SDS011;22738;45.560;9.434;2023-07-30T10:23:08;7.10;;;3.83;;
36787;SDS011;22738;45.560;9.434;2023-07-30T10:36:50;6.60;;;4.28;;
36787;SDS011;22738;45.560;9.434;2023-07-30T10:43:33;5.88;;;3.83;;
36787;SDS011;22738;45.560;9.434;2023-07-30T10:50:16;5.22;;;3.47;;
36787;SDS011;22738;45.560;9.434;2023-07-30T10:57:03;7.13;;;3.45;;
36787;SDS011;22738;45.560;9.434;2023-07-30T11:03:50;5.05;;;2.58;;
36787;SDS011;22738;45.560;9.434;2023-07-30T11:10:41;4.45;;;2.58;;
36787;SDS011;22738;45.560;9.434;2023-07-30T11:17:23;3.78;;;3.00;;
36787;SDS011;22738;45.560;9.434;2023-07-30T11:24:07;6.75;;;3.35;;
36787;SDS011;22738;45.560;9.434;2023-07-30T11:30:58;3.85;;;2.80;;
36787;SDS011;22738;45.560;9.434;2023-07-30T11:37:49;5.05;;;2.78;;
36787;SDS011;22738;45.560;9.434;2023-07-30T11:44:34;4.78;;;3.03;;
36787;SDS011;22738;45.560;9.434;2023-07-30T11:51:19;4.10;;;2.92;;
36787;SDS011;22738;45.560;9.434;2023-07-30T11:58:00;5.37;;;3.73;;
36787;SDS011;22738;45.560;9.434;2023-07-30T12:04:44;4.93;;;3.67;;
36787;SDS011;22738;45.560;9.434;2023-07-30T12:11:26;4.82;;;2.85;;
36787;SDS011;22738;45.560;9.434;2023-07-30T12:18:07;4.45;;;3.33;;
36787;SDS011;22738;45.560;9.434;2023-07-30T12:24:48;5.85;;;3.63;;
36787;SDS011;22738;45.560;9.434;2023-07-30T12:31:29;4.30;;;3.50;;
36787;SDS011;22738;45.560;9.434;2023-07-30T12:38:10;3.42;;;3.00;;
36787;SDS011;22738;45.560;9.434;2023-07-30T12:44:53;8.15;;;3.55;;
36787;SDS011;22738;45.560;9.434;2023-07-30T12:51:34;6.40;;;3.50;;
36787;SDS011;22738;45.560;9.434;2023-07-30T12:58:15;4.60;;;3.13;;
36787;SDS011;22738;45.560;9.434;2023-07-30T13:04:56;5.75;;;3.15;;
36787;SDS011;22738;45.560;9.434;2023-07-30T13:11:37;5.13;;;3.28;;
36787;SDS011;22738;45.560;9.434;2023-07-30T13:18:18;8.65;;;3.53;;
36787;SDS011;22738;45.560;9.434;2023-07-30T13:24:59;3.83;;;3.10;;
36787;SDS011;22738;45.560;9.434;2023-07-30T13:31:41;3.63;;;2.97;;
36787;SDS011;22738;45.560;9.434;2023-07-30T13:38:22;4.78;;;2.45;;
36787;SDS011;22738;45.560;9.434;2023-07-30T13:45:03;4.15;;;2.97;;
36787;SDS011;22738;45.560;9.434;2023-07-30T13:51:46;3.70;;;3.00;;
36787;SDS011;22738;45.560;9.434;2023-07-30T13:58:27;5.38;;;2.63;;
36787;SDS011;22738;45.560;9.434;2023-07-30T14:05:09;3.88;;;2.80;;
36787;SDS011;22738;45.560;9.434;2023-07-30T14:11:51;5.60;;;3.40;;
36787;SDS011;22738;45.560;9.434;2023-07-30T14:18:32;5.03;;;2.92;;
36787;SDS011;22738;45.560;9.434;2023-07-30T14:25:16;4.03;;;2.65;;
36787;SDS011;22738;45.560;9.434;2023-07-30T14:31:57;4.40;;;2.70;;
36787;SDS011;22738;45.560;9.434;2023-07-30T14:38:39;5.57;;;3.67;;
36787;SDS011;22738;45.560;9.434;2023-07-30T14:45:20;3.58;;;2.78;;
36787;SDS011;22738;45.560;9.434;2023-07-30T14:52:01;4.10;;;2.75;;
36787;SDS011;22738;45.560;9.434;2023-07-30T14:58:42;5.80;;;2.95;;
36787;SDS011;22738;45.560;9.434;2023-07-30T15:05:24;4.85;;;2.72;;
36787;SDS011;22738;45.560;9.434;2023-07-30T15:12:05;3.10;;;2.58;;
36787;SDS011;22738;45.560;9.434;2023-07-30T15:18:48;3.70;;;2.88;;
36787;SDS011;22738;45.560;9.434;2023-07-30T15:25:29;4.35;;;2.70;;
36787;SDS011;22738;45.560;9.434;2023-07-30T15:32:10;3.13;;;2.30;;
36787;SDS011;22738;45.560;9.434;2023-07-30T15:38:51;3.92;;;2.40;;
36787;SDS011;22738;45.560;9.434;2023-07-30T15:45:35;2.80;;;1.95;;
36787;SDS011;22738;45.560;9.434;2023-07-30T15:52:23;2.63;;;2.03;;
36787;SDS011;22738;45.560;9.434;2023-07-30T15:59:04;7.10;;;2.30;;
36787;SDS011;22738;45.560;9.434;2023-07-30T16:05:46;4.22;;;2.67;;
36787;SDS011;22738;45.560;9.434;2023-07-30T16:12:28;4.03;;;2.10;;
36787;SDS011;22738;45.560;9.434;2023-07-30T16:19:09;4.60;;;2.30;;
36787;SDS011;22738;45.560;9.434;2023-07-30T16:25:54;2.95;;;1.92;;
36787;SDS011;22738;45.560;9.434;2023-07-30T16:32:35;3.00;;;2.15;;
36787;SDS011;22738;45.560;9.434;2023-07-30T16:39:16;4.20;;;2.13;;
36787;SDS011;22738;45.560;9.434;2023-07-30T16:45:58;3.20;;;2.15;;
36787;SDS011;22738;45.560;9.434;2023-07-30T16:52:45;2.85;;;2.38;;
36787;SDS011;22738;45.560;9.434;2023-07-30T16:59:27;2.85;;;2.13;;
36787;SDS011;22738;45.560;9.434;2023-07-30T17:06:08;4.28;;;2.35;;
36787;SDS011;22738;45.560;9.434;2023-07-30T17:12:49;2.10;;;1.90;;
36787;SDS011;22738;45.560;9.434;2023-07-30T17:19:30;4.63;;;2.58;;
36787;SDS011;22738;45.560;9.434;2023-07-30T17:26:12;3.60;;;2.28;;
36787;SDS011;22738;45.560;9.434;2023-07-30T17:32:53;3.30;;;2.17;;
36787;SDS011;22738;45.560;9.434;2023-07-30T17:46:17;3.47;;;1.98;;
36787;SDS011;22738;45.560;9.434;2023-07-30T17:53:01;4.68;;;2.63;;
36787;SDS011;22738;45.560;9.434;2023-07-30T17:59:44;4.22;;;2.70;;
36787;SDS011;22738;45.560;9.434;2023-07-30T18:06:25;5.43;;;2.33;;
36787;SDS011;22738;45.560;9.434;2023-07-30T18:13:08;4.35;;;2.58;;
36787;SDS011;22738;45.560;9.434;2023-07-30T18:19:49;4.32;;;2.50;;
36787;SDS011;22738;45.560;9.434;2023-07-30T18:26:30;4.30;;;2.42;;
36787;SDS011;22738;45.560;9.434;2023-07-30T18:33:14;7.03;;;3.28;;
36787;SDS011;22738;45.560;9.434;2023-07-30T18:39:56;3.42;;;2.50;;
36787;SDS011;22738;45.560;9.434;2023-07-30T18:46:40;3.33;;;2.40;;
36787;SDS011;22738;45.560;9.434;2023-07-30T18:53:23;5.18;;;3.40;;
36787;SDS011;22738;45.560;9.434;2023-07-30T19:00:04;7.05;;;2.33;;
36787;SDS011;22738;45.560;9.434;2023-07-30T19:06:46;4.22;;;3.03;;
36787;SDS011;22738;45.560;9.434;2023-07-30T19:13:29;5.18;;;3.08;;
36787;SDS011;22738;45.560;9.434;2023-07-30T19:20:11;5.65;;;2.92;;
36787;SDS011;22738;45.560;9.434;2023-07-30T19:26:52;5.43;;;2.88;;
36787;SDS011;22738;45.560;9.434;2023-07-30T19:33:37;7.50;;;3.28;;
36787;SDS011;22738;45.560;9.434;2023-07-30T19:40:21;4.00;;;3.05;;
36787;SDS011;22738;45.560;9.434;2023-07-30T19:47:02;4.85;;;2.97;;
36787;SDS011;22738;45.560;9.434;2023-07-30T19:53:43;7.45;;;3.80;;
36787;SDS011;22738;45.560;9.434;2023-07-30T20:00:25;5.82;;;3.38;;
36787;SDS011;22738;45.560;9.434;2023-07-30T20:07:09;4.97;;;3.25;;
36787;SDS011;22738;45.560;9.434;2023-07-30T20:13:50;4.72;;;3.08;;
36787;SDS011;22738;45.560;9.434;2023-07-30T20:20:32;7.65;;;3.75;;
36787;SDS011;22738;45.560;9.434;2023-07-30T20:27:14;6.20;;;4.07;;
36787;SDS011;22738;45.560;9.434;2023-07-30T20:33:56;5.15;;;3.58;;
36787;SDS011;22738;45.560;9.434;2023-07-30T20:40:37;3.67;;;3.20;;
36787;SDS011;22738;45.560;9.434;2023-07-30T20:47:18;4.95;;;3.42;;
36787;SDS011;22738;45.560;9.434;2023-07-30T20:53:59;4.97;;;3.17;;
36787;SDS011;22738;45.560;9.434;2023-07-30T21:00:40;5.03;;;3.72;;
36787;SDS011;22738;45.560;9.434;2023-07-30T21:07:21;5.78;;;3.70;;
36787;SDS011;22738;45.560;9.434;2023-07-30T21:14:02;6.45;;;4.32;;
36787;SDS011;22738;45.560;9.434;2023-07-30T21:20:45;6.35;;;4.38;;
36787;SDS011;22738;45.560;9.434;2023-07-30T21:27:26;5.78;;;4.20;;
36787;SDS011;22738;45.560;9.434;2023-07-30T21:34:08;5.32;;;4.30;;
36787;SDS011;22738;45.560;9.434;2023-07-30T21:40:50;7.47;;;4.53;;
36787;SDS011;22738;45.560;9.434;2023-07-30T21:47:32;8.00;;;5.35;;
36787;SDS011;22738;45.560;9.434;2023-07-30T21:54:13;12.27;;;5.75;;
36787;SDS011;22738;45.560;9.434;2023-07-30T22:00:54;7.65;;;5.63;;
36787;SDS011;22738;45.560;9.434;2023-07-30T22:07:37;6.55;;;4.82;;
36787;SDS011;22738;45.560;9.434;2023-07-30T22:14:19;8.13;;;5.13;;
36787;SDS011;22738;45.560;9.434;2023-07-30T22:21:00;9.75;;;6.35;;
36787;SDS011;22738;45.560;9.434;2023-07-30T22:27:41;8.25;;;5.15;;
36787;SDS011;22738;45.560;9.434;2023-07-30T22:34:24;9.02;;;6.18;;
36787;SDS011;22738;45.560;9.434;2023-07-30T22:41:05;8.45;;;5.25;;
36787;SDS011;22738;45.560;9.434;2023-07-30T22:47:46;7.57;;;5.63;;
36787;SDS011;22738;45.560;9.434;2023-07-30T22:54:28;8.73;;;5.10;;
36787;SDS011;22738;45.560;9.434;2023-07-30T23:01:09;7.00;;;5.75;;
36787;SDS011;22738;45.560;9.434;2023-07-30T23:07:50;7.80;;;5.32;;
36787;SDS011;22738;45.560;9.434;2023-07-30T23:14:31;7.47;;;5.13;;
36787;SDS011;22738;45.560;9.434;2023-07-30T23:21:12;9.25;;;5.40;;
36787;SDS011;22738;45.560;9.434;2023-07-30T23:27:54;7.53;;;5.03;;
36787;SDS011;22738;45.560;9.434;2023-07-30T23:34:35;7.80;;;5.28;;
36787;SDS011;22738;45.560;9.434;2023-07-30T23:41:17;8.63;;;5.50;;
36787;SDS011;22738;45.560;9.434;2023-07-30T23:47:58;9.23;;;5.80;;
36787;SDS011;22738;45.560;9.434;2023-07-30T23:54:39;8.63;;;5.35;;
